Ingeniero Luis A. Huergo, Argentina
Current Conditions -  °F | °C
As of 12:00 AM on Tuesday 23 Dec 2014 (Local Time) from SAZN Reporting Station
Clear Clear  
Wind Chill: 63°   Ceiling: Unl
Heat Index: 63°   Visibility: 6mi
Dew Point: 32°   Wind: 5mph
Humidity: 32%   Direction: 270°W
Pressure: 30.03"   Gusts: NA
Location:  39.07°S, 67.25°W
Report Text: SAZN 230300Z 27004KT CAVOK 17/00 Q1017
Loading
Personal Weather Stations






























Interactive Weather Map New forecast layout! Learn more

10-Day Weather Forecast

Advertisements
Track Severe Weather on mobile